createdAt,value
2022-11-02T00:10:21.187Z,0.6
2022-11-02T00:22:21.190Z,0.6
2022-11-02T00:34:21.291Z,0.6
2022-11-02T00:46:21.189Z,0.6
2022-11-02T00:58:21.296Z,0.6
2022-11-02T01:10:21.238Z,0.6
2022-11-02T01:22:21.291Z,0.4
2022-11-02T01:34:21.267Z,0.4
2022-11-02T01:46:21.302Z,0.4
2022-11-02T01:58:21.189Z,0.4
2022-11-02T02:10:21.182Z,0.4
2022-11-02T02:22:21.469Z,0.4
2022-11-02T02:34:21.283Z,0.4
2022-11-02T02:46:21.304Z,0.4
2022-11-02T02:58:21.304Z,0.4
2022-11-02T03:10:21.182Z,0.4
2022-11-02T03:22:21.431Z,0.4
2022-11-02T03:34:21.292Z,0.4
2022-11-02T03:46:21.250Z,0.4
2022-11-02T03:58:21.188Z,0.4
2022-11-02T04:10:21.187Z,0.4
2022-11-02T04:22:21.188Z,0.5
2022-11-02T04:34:21.190Z,0.5
2022-11-02T04:46:21.299Z,0.5
2022-11-02T04:58:21.192Z,0.5
2022-11-02T05:10:21.282Z,0.5
2022-11-02T05:22:21.253Z,0.4
2022-11-02T05:34:21.310Z,0.4
2022-11-02T05:46:21.192Z,0.4
2022-11-02T05:58:21.192Z,0.5
2022-11-02T06:10:21.248Z,0.5
2022-11-02T06:22:21.185Z,0.5
2022-11-02T06:34:21.279Z,0.5
2022-11-02T06:46:21.267Z,0.5
2022-11-02T06:58:21.188Z,0.4
2022-11-02T07:10:21.194Z,0.4
2022-11-02T07:22:21.259Z,0.3
2022-11-02T07:34:21.212Z,0.3
2022-11-02T07:46:21.206Z,0.3
2022-11-02T07:58:21.269Z,1.3
2022-11-02T08:10:21.198Z,1.3
2022-11-02T08:22:21.409Z,2.9
2022-11-02T08:34:21.205Z,2.9
2022-11-02T08:46:21.219Z,2.9
2022-11-02T08:58:21.187Z,2.1
2022-11-02T09:10:21.304Z,2.1
2022-11-02T09:22:21.193Z,2.5
2022-11-02T09:34:21.186Z,2.5
2022-11-02T09:46:21.280Z,2.5
2022-11-02T09:58:21.276Z,6.4
2022-11-02T10:10:21.243Z,6.4
2022-11-02T10:22:21.199Z,3.3
2022-11-02T10:34:21.199Z,3.3
2022-11-02T10:46:21.183Z,3.3
2022-11-02T10:58:21.305Z,2.8
2022-11-02T11:10:21.189Z,2.8
2022-11-02T11:22:21.280Z,2.3
2022-11-02T11:34:21.196Z,2.3
2022-11-02T11:46:21.195Z,2.3
2022-11-02T11:58:21.204Z,1.7
2022-11-02T12:10:21.188Z,1.7
2022-11-02T12:22:21.190Z,1.4
2022-11-02T12:34:21.184Z,1.4
2022-11-02T12:46:21.190Z,1.4
2022-11-02T12:58:21.197Z,1.2
2022-11-02T13:10:21.212Z,1.2
2022-11-02T13:22:21.201Z,1.5
2022-11-02T13:34:21.195Z,1.5
2022-11-02T13:46:21.227Z,1.5
2022-11-02T13:58:21.213Z,1.4
2022-11-02T14:10:21.226Z,1.4
2022-11-02T14:22:21.190Z,1.3
2022-11-02T14:34:21.291Z,1.3
2022-11-02T14:46:21.241Z,1.3
2022-11-02T14:58:21.268Z,1.3
2022-11-02T15:10:21.309Z,1.3
2022-11-02T15:22:21.463Z,1.3
2022-11-02T15:34:21.387Z,1.3
2022-11-02T15:46:21.515Z,1.3
2022-11-02T15:58:21.455Z,1.4
2022-11-02T16:10:21.194Z,1.4
2022-11-02T16:22:21.282Z,1.5
2022-11-02T16:34:21.197Z,1.5
2022-11-02T16:46:21.531Z,1.5
2022-11-02T16:58:21.299Z,1.3
2022-11-02T17:10:21.264Z,1.3
2022-11-02T17:22:21.285Z,1.5
2022-11-02T17:34:21.305Z,1.5
2022-11-02T17:46:21.300Z,1.5
2022-11-02T17:58:21.190Z,1.3
2022-11-02T18:10:21.186Z,1.3
2022-11-02T18:22:21.198Z,1.3
2022-11-02T18:34:21.316Z,1.3
2022-11-02T18:46:22.054Z,1.3
2022-11-02T18:58:21.191Z,1.0
2022-11-02T19:10:21.189Z,1.0
2022-11-02T19:22:21.307Z,0.9
2022-11-02T19:34:21.302Z,0.9
2022-11-02T19:46:21.288Z,0.9
2022-11-02T19:58:21.270Z,1.0
2022-11-02T20:10:21.184Z,1.0
2022-11-02T20:22:21.246Z,0.7
2022-11-02T20:34:21.315Z,0.7
2022-11-02T20:46:37.106Z,0.7
2022-11-02T20:58:21.304Z,0.8
2022-11-02T21:10:21.188Z,0.8
2022-11-02T21:22:21.193Z,0.8
2022-11-02T21:34:21.209Z,0.8
2022-11-02T21:46:21.288Z,0.8
2022-11-02T21:58:21.293Z,0.8
2022-11-02T22:10:21.266Z,0.8
2022-11-02T22:22:21.189Z,0.7
2022-11-02T22:34:21.194Z,0.7
2022-11-02T22:46:21.204Z,0.7
2022-11-02T22:58:21.246Z,0.8
2022-11-02T23:10:21.191Z,0.8
2022-11-02T23:22:21.292Z,0.7
2022-11-02T23:34:21.294Z,0.7
2022-11-02T23:46:21.192Z,0.7
2022-11-02T23:58:21.303Z,0.5
